Brush Fork, West Virginia
Current Conditions -  °F | °C
As of 3:52 PM on Friday 24 Oct 2014 (Local Time) from KBLF Reporting Station
Clear Clear  
Wind Chill: 60°   Ceiling: Unl
Heat Index: 60°   Visibility: 10mi
Dew Point: 36°   Wind: 9mph
Humidity: 41%   Direction: 310°NW
Pressure: 30.06"   Gusts: NA
Location:  37.2994°N, 81.226°W
Report Text: KBLF 241952Z AUTO 31008KT 10SM CLR 16/02 A3006 RMK AO2 SLP169 T01560022
Loading
Personal Weather Stations






























Interactive Weather Map
Tropical Storm Tracking
New forecast layout! Learn more

10-Day Weather Forecast

Advertisements
Track Severe Weather on mobile